Terminal Aerodrome Forecast
Issued by NWS

Home | Current Version | Previous Version | Graphics & Text | Print | Product List | Glossary Off
Versions: 1 2 3 4 5 6 7 8 9 10 11 12 13 14 15 16

000
FTUS43 KGRB 181700
TAFMTW
TAF
KMTW 181723Z 1818/1918 06007KT P6SM BKN020
     FM190000 12004KT P6SM BKN022
     FM190700 17004KT P6SM SCT025
     FM191500 20012G20KT P6SM BKN250=

USA.gov is the U.S. government's official web portal to all federal, state and local government web resources and services.